sensor_id;sensor_type;location;lat;lon;timestamp;temperature;humidity
38622;DHT22;24380;51.132;5.360;2023-04-25T00:01:22;7.50;99.90
38622;DHT22;24380;51.132;5.360;2023-04-25T00:03:50;7.60;99.90
38622;DHT22;24380;51.132;5.360;2023-04-25T00:06:17;7.50;99.90
38622;DHT22;24380;51.132;5.360;2023-04-25T00:08:45;7.50;99.90
38622;DHT22;24380;51.132;5.360;2023-04-25T00:11:13;7.50;99.90
38622;DHT22;24380;51.132;5.360;2023-04-25T00:13:40;7.60;99.90
38622;DHT22;24380;51.132;5.360;2023-04-25T00:16:08;7.60;99.90
38622;DHT22;24380;51.132;5.360;2023-04-25T00:18:35;7.60;99.90
38622;DHT22;24380;51.132;5.360;2023-04-25T00:21:03;7.70;99.90
38622;DHT22;24380;51.132;5.360;2023-04-25T00:23:32;7.70;99.90
38622;DHT22;24380;51.132;5.360;2023-04-25T00:26:02;7.60;99.90
38622;DHT22;24380;51.132;5.360;2023-04-25T00:28:30;7.70;99.90
38622;DHT22;24380;51.132;5.360;2023-04-25T00:30:57;7.70;99.90
38622;DHT22;24380;51.132;5.360;2023-04-25T00:33:26;7.60;99.90
38622;DHT22;24380;51.132;5.360;2023-04-25T00:35:53;7.60;99.90
38622;DHT22;24380;51.132;5.360;2023-04-25T00:38:21;7.50;99.90
38622;DHT22;24380;51.132;5.360;2023-04-25T00:40:48;7.50;99.90
38622;DHT22;24380;51.132;5.360;2023-04-25T00:43:16;7.50;99.90
38622;DHT22;24380;51.132;5.360;2023-04-25T00:45:44;7.50;99.90
38622;DHT22;24380;51.132;5.360;2023-04-25T00:48:14;7.50;99.90
38622;DHT22;24380;51.132;5.360;2023-04-25T00:50:42;7.50;99.90
38622;DHT22;24380;51.132;5.360;2023-04-25T00:53:10;7.50;99.90
38622;DHT22;24380;51.132;5.360;2023-04-25T00:55:37;7.40;99.90
38622;DHT22;24380;51.132;5.360;2023-04-25T00:58:05;7.30;99.90
38622;DHT22;24380;51.132;5.360;2023-04-25T01:00:32;7.30;99.90
38622;DHT22;24380;51.132;5.360;2023-04-25T01:03:00;7.30;99.90
38622;DHT22;24380;51.132;5.360;2023-04-25T01:05:29;7.20;99.90
38622;DHT22;24380;51.132;5.360;2023-04-25T01:07:57;7.30;99.90
38622;DHT22;24380;51.132;5.360;2023-04-25T01:10:25;7.30;99.90
38622;DHT22;24380;51.132;5.360;2023-04-25T01:12:53;7.20;99.90
38622;DHT22;24380;51.132;5.360;2023-04-25T01:15:21;7.20;99.90
38622;DHT22;24380;51.132;5.360;2023-04-25T01:17:49;7.20;99.90
38622;DHT22;24380;51.132;5.360;2023-04-25T01:20:17;7.20;99.90
38622;DHT22;24380;51.132;5.360;2023-04-25T01:22:45;7.20;99.90
38622;DHT22;24380;51.132;5.360;2023-04-25T01:25:13;7.10;99.90
38622;DHT22;24380;51.132;5.360;2023-04-25T01:27:41;7.10;99.90
38622;DHT22;24380;51.132;5.360;2023-04-25T01:30:08;7.10;99.90
38622;DHT22;24380;51.132;5.360;2023-04-25T01:32:36;6.90;99.90
38622;DHT22;24380;51.132;5.360;2023-04-25T01:35:09;6.90;99.90
38622;DHT22;24380;51.132;5.360;2023-04-25T01:37:41;6.80;99.90
38622;DHT22;24380;51.132;5.360;2023-04-25T01:40:11;6.70;99.90
38622;DHT22;24380;51.132;5.360;2023-04-25T01:42:41;6.70;99.90
38622;DHT22;24380;51.132;5.360;2023-04-25T01:45:09;6.70;99.90
38622;DHT22;24380;51.132;5.360;2023-04-25T01:47:38;6.70;99.90
38622;DHT22;24380;51.132;5.360;2023-04-25T01:50:10;6.70;99.90
38622;DHT22;24380;51.132;5.360;2023-04-25T01:52:38;6.70;99.90
38622;DHT22;24380;51.132;5.360;2023-04-25T01:55:06;6.70;99.90
38622;DHT22;24380;51.132;5.360;2023-04-25T01:57:33;6.50;99.90
38622;DHT22;24380;51.132;5.360;2023-04-25T02:00:04;6.50;99.90
38622;DHT22;24380;51.132;5.360;2023-04-25T02:02:33;6.40;99.90
38622;DHT22;24380;51.132;5.360;2023-04-25T02:05:00;6.50;99.90
38622;DHT22;24380;51.132;5.360;2023-04-25T02:07:28;6.40;99.90
38622;DHT22;24380;51.132;5.360;2023-04-25T02:09:55;6.40;99.90
38622;DHT22;24380;51.132;5.360;2023-04-25T02:12:23;6.40;99.90
38622;DHT22;24380;51.132;5.360;2023-04-25T02:14:52;6.30;99.90
38622;DHT22;24380;51.132;5.360;2023-04-25T02:17:20;6.40;99.90
38622;DHT22;24380;51.132;5.360;2023-04-25T02:19:48;6.30;99.90
38622;DHT22;24380;51.132;5.360;2023-04-25T02:22:16;6.30;99.90
38622;DHT22;24380;51.132;5.360;2023-04-25T02:24:44;6.40;99.90
38622;DHT22;24380;51.132;5.360;2023-04-25T02:27:11;6.40;99.90
38622;DHT22;24380;51.132;5.360;2023-04-25T02:29:39;6.50;99.90
38622;DHT22;24380;51.132;5.360;2023-04-25T02:32:06;6.50;99.90
38622;DHT22;24380;51.132;5.360;2023-04-25T02:34:34;6.60;99.90
38622;DHT22;24380;51.132;5.360;2023-04-25T02:37:01;6.60;99.90
38622;DHT22;24380;51.132;5.360;2023-04-25T02:39:29;6.70;99.90
38622;DHT22;24380;51.132;5.360;2023-04-25T02:41:56;6.60;99.90
38622;DHT22;24380;51.132;5.360;2023-04-25T02:44:24;6.60;99.90
38622;DHT22;24380;51.132;5.360;2023-04-25T02:46:51;6.60;99.90
38622;DHT22;24380;51.132;5.360;2023-04-25T02:49:19;6.50;99.90
38622;DHT22;24380;51.132;5.360;2023-04-25T02:51:46;6.60;99.90
38622;DHT22;24380;51.132;5.360;2023-04-25T02:54:14;6.50;99.90
38622;DHT22;24380;51.132;5.360;2023-04-25T02:56:41;6.70;99.90
38622;DHT22;24380;51.132;5.360;2023-04-25T02:59:09;6.70;99.90
38622;DHT22;24380;51.132;5.360;2023-04-25T03:01:36;6.70;99.90
38622;DHT22;24380;51.132;5.360;2023-04-25T03:04:04;6.70;99.90
38622;DHT22;24380;51.132;5.360;2023-04-25T03:06:31;6.60;99.90
38622;DHT22;24380;51.132;5.360;2023-04-25T03:08:59;6.60;99.90
38622;DHT22;24380;51.132;5.360;2023-04-25T03:11:26;6.60;99.90
38622;DHT22;24380;51.132;5.360;2023-04-25T03:13:54;6.50;99.90
38622;DHT22;24380;51.132;5.360;2023-04-25T03:16:22;6.60;99.90
38622;DHT22;24380;51.132;5.360;2023-04-25T03:18:49;6.50;99.90
38622;DHT22;24380;51.132;5.360;2023-04-25T03:21:18;6.50;99.90
38622;DHT22;24380;51.132;5.360;2023-04-25T03:23:45;6.60;99.90
38622;DHT22;24380;51.132;5.360;2023-04-25T03:26:13;6.60;99.90
38622;DHT22;24380;51.132;5.360;2023-04-25T03:28:41;6.60;99.90
38622;DHT22;24380;51.132;5.360;2023-04-25T03:31:08;6.60;99.90
38622;DHT22;24380;51.132;5.360;2023-04-25T03:33:36;6.60;99.90
38622;DHT22;24380;51.132;5.360;2023-04-25T03:36:03;6.70;99.90
38622;DHT22;24380;51.132;5.360;2023-04-25T03:38:32;6.60;99.90
38622;DHT22;24380;51.132;5.360;2023-04-25T03:41:00;6.70;99.90
38622;DHT22;24380;51.132;5.360;2023-04-25T03:43:28;6.70;99.90
38622;DHT22;24380;51.132;5.360;2023-04-25T03:45:55;6.70;99.90
38622;DHT22;24380;51.132;5.360;2023-04-25T03:48:23;6.70;99.90
38622;DHT22;24380;51.132;5.360;2023-04-25T03:50:53;6.70;99.90
38622;DHT22;24380;51.132;5.360;2023-04-25T03:53:20;6.70;99.90
38622;DHT22;24380;51.132;5.360;2023-04-25T03:55:48;6.70;99.90
38622;DHT22;24380;51.132;5.360;2023-04-25T03:58:16;6.70;99.90
38622;DHT22;24380;51.132;5.360;2023-04-25T04:00:43;6.70;99.90
38622;DHT22;24380;51.132;5.360;2023-04-25T04:03:11;6.70;99.90
38622;DHT22;24380;51.132;5.360;2023-04-25T04:05:38;6.70;99.90
38622;DHT22;24380;51.132;5.360;2023-04-25T04:08:07;6.60;99.90
38622;DHT22;24380;51.132;5.360;2023-04-25T04:10:34;6.60;99.90
38622;DHT22;24380;51.132;5.360;2023-04-25T04:13:02;6.70;99.90
38622;DHT22;24380;51.132;5.360;2023-04-25T04:15:30;6.60;99.90
38622;DHT22;24380;51.132;5.360;2023-04-25T04:17:59;6.60;99.90
38622;DHT22;24380;51.132;5.360;2023-04-25T04:20:29;6.50;99.90
38622;DHT22;24380;51.132;5.360;2023-04-25T04:22:57;6.50;99.90
38622;DHT22;24380;51.132;5.360;2023-04-25T04:25:24;6.50;99.90
38622;DHT22;24380;51.132;5.360;2023-04-25T04:27:52;6.60;99.90
38622;DHT22;24380;51.132;5.360;2023-04-25T04:30:23;6.60;99.90
38622;DHT22;24380;51.132;5.360;2023-04-25T04:32:52;6.50;99.90
38622;DHT22;24380;51.132;5.360;2023-04-25T04:35:19;6.50;99.90
38622;DHT22;24380;51.132;5.360;2023-04-25T04:37:47;6.50;99.90
38622;DHT22;24380;51.132;5.360;2023-04-25T04:40:15;6.50;99.90
38622;DHT22;24380;51.132;5.360;2023-04-25T04:42:44;6.50;99.90
38622;DHT22;24380;51.132;5.360;2023-04-25T04:45:17;6.60;99.90
38622;DHT22;24380;51.132;5.360;2023-04-25T04:47:45;6.60;99.90
38622;DHT22;24380;51.132;5.360;2023-04-25T04:50:13;6.60;99.90
38622;DHT22;24380;51.132;5.360;2023-04-25T04:52:41;6.70;99.90
38622;DHT22;24380;51.132;5.360;2023-04-25T04:55:09;6.70;99.90
38622;DHT22;24380;51.132;5.360;2023-04-25T04:57:36;6.70;99.90
38622;DHT22;24380;51.132;5.360;2023-04-25T05:00:05;6.70;99.90
38622;DHT22;24380;51.132;5.360;2023-04-25T05:02:35;6.60;99.90
38622;DHT22;24380;51.132;5.360;2023-04-25T05:05:02;7.00;99.90
38622;DHT22;24380;51.132;5.360;2023-04-25T05:07:30;7.20;99.90
38622;DHT22;24380;51.132;5.360;2023-04-25T05:09:57;7.10;99.90
38622;DHT22;24380;51.132;5.360;2023-04-25T05:12:25;7.00;99.90
38622;DHT22;24380;51.132;5.360;2023-04-25T05:14:53;7.00;99.90
38622;DHT22;24380;51.132;5.360;2023-04-25T05:17:20;6.90;99.90
38622;DHT22;24380;51.132;5.360;2023-04-25T05:19:48;6.90;99.90
38622;DHT22;24380;51.132;5.360;2023-04-25T05:22:15;6.90;99.90
38622;DHT22;24380;51.132;5.360;2023-04-25T05:24:43;6.90;99.90
38622;DHT22;24380;51.132;5.360;2023-04-25T05:27:10;6.90;99.90
38622;DHT22;24380;51.132;5.360;2023-04-25T05:29:38;6.90;99.90
38622;DHT22;24380;51.132;5.360;2023-04-25T05:32:05;6.90;99.90
38622;DHT22;24380;51.132;5.360;2023-04-25T05:34:34;6.90;99.90
38622;DHT22;24380;51.132;5.360;2023-04-25T05:37:01;6.90;99.90
38622;DHT22;24380;51.132;5.360;2023-04-25T05:39:29;7.00;99.90
38622;DHT22;24380;51.132;5.360;2023-04-25T05:41:56;7.00;99.90
38622;DHT22;24380;51.132;5.360;2023-04-25T05:44:24;7.10;99.90
38622;DHT22;24380;51.132;5.360;2023-04-25T05:46:53;7.00;99.90
38622;DHT22;24380;51.132;5.360;2023-04-25T05:49:21;7.00;99.90
38622;DHT22;24380;51.132;5.360;2023-04-25T05:51:48;7.00;99.90
38622;DHT22;24380;51.132;5.360;2023-04-25T05:54:16;7.00;99.90
38622;DHT22;24380;51.132;5.360;2023-04-25T05:56:44;7.10;99.90
38622;DHT22;24380;51.132;5.360;2023-04-25T05:59:11;7.20;99.90
38622;DHT22;24380;51.132;5.360;2023-04-25T06:01:39;7.30;99.90
38622;DHT22;24380;51.132;5.360;2023-04-25T06:04:06;7.30;99.90
38622;DHT22;24380;51.132;5.360;2023-04-25T06:06:34;7.40;99.90
38622;DHT22;24380;51.132;5.360;2023-04-25T06:09:02;7.50;99.90
38622;DHT22;24380;51.132;5.360;2023-04-25T06:11:29;7.50;99.90
38622;DHT22;24380;51.132;5.360;2023-04-25T06:13:57;7.60;99.90
38622;DHT22;24380;51.132;5.360;2023-04-25T06:16:24;7.70;99.90
38622;DHT22;24380;51.132;5.360;2023-04-25T06:18:52;7.90;99.90
38622;DHT22;24380;51.132;5.360;2023-04-25T06:21:19;8.00;99.90
38622;DHT22;24380;51.132;5.360;2023-04-25T06:23:47;8.00;99.90
38622;DHT22;24380;51.132;5.360;2023-04-25T06:26:14;8.00;99.90
38622;DHT22;24380;51.132;5.360;2023-04-25T06:28:42;8.10;99.90
38622;DHT22;24380;51.132;5.360;2023-04-25T06:31:10;8.20;99.90
38622;DHT22;24380;51.132;5.360;2023-04-25T06:33:37;8.10;99.90
38622;DHT22;24380;51.132;5.360;2023-04-25T06:36:05;8.20;99.90
38622;DHT22;24380;51.132;5.360;2023-04-25T06:38:32;8.20;99.90
38622;DHT22;24380;51.132;5.360;2023-04-25T06:41:01;8.10;99.90
38622;DHT22;24380;51.132;5.360;2023-04-25T06:43:29;8.10;99.90
38622;DHT22;24380;51.132;5.360;2023-04-25T06:45:58;8.20;99.90
38622;DHT22;24380;51.132;5.360;2023-04-25T06:48:27;8.40;99.90
38622;DHT22;24380;51.132;5.360;2023-04-25T06:50:55;8.60;99.90
38622;DHT22;24380;51.132;5.360;2023-04-25T06:53:23;8.50;99.90
38622;DHT22;24380;51.132;5.360;2023-04-25T06:55:50;8.70;99.90
38622;DHT22;24380;51.132;5.360;2023-04-25T06:58:18;8.80;99.90
38622;DHT22;24380;51.132;5.360;2023-04-25T07:00:45;9.00;99.90
38622;DHT22;24380;51.132;5.360;2023-04-25T07:03:13;9.10;99.90
38622;DHT22;24380;51.132;5.360;2023-04-25T07:05:41;9.10;99.90
38622;DHT22;24380;51.132;5.360;2023-04-25T07:08:08;9.20;99.90
38622;DHT22;24380;51.132;5.360;2023-04-25T07:10:36;9.50;99.90
38622;DHT22;24380;51.132;5.360;2023-04-25T07:13:03;9.70;99.90
38622;DHT22;24380;51.132;5.360;2023-04-25T07:15:31;9.70;99.90
38622;DHT22;24380;51.132;5.360;2023-04-25T07:17:59;9.60;99.90
38622;DHT22;24380;51.132;5.360;2023-04-25T07:20:26;9.60;99.90
38622;DHT22;24380;51.132;5.360;2023-04-25T07:22:54;9.60;99.90
38622;DHT22;24380;51.132;5.360;2023-04-25T07:25:21;9.70;99.90
38622;DHT22;24380;51.132;5.360;2023-04-25T07:27:49;9.80;99.90
38622;DHT22;24380;51.132;5.360;2023-04-25T07:30:16;9.60;99.90
38622;DHT22;24380;51.132;5.360;2023-04-25T07:32:44;9.40;99.90
38622;DHT22;24380;51.132;5.360;2023-04-25T07:35:12;9.40;99.90
38622;DHT22;24380;51.132;5.360;2023-04-25T07:37:39;9.60;99.90
38622;DHT22;24380;51.132;5.360;2023-04-25T07:40:07;9.60;99.90
38622;DHT22;24380;51.132;5.360;2023-04-25T07:42:36;9.60;99.90
38622;DHT22;24380;51.132;5.360;2023-04-25T07:45:03;9.90;99.90
38622;DHT22;24380;51.132;5.360;2023-04-25T07:47:31;9.70;99.90
38622;DHT22;24380;51.132;5.360;2023-04-25T07:49:58;9.70;99.90
38622;DHT22;24380;51.132;5.360;2023-04-25T07:52:26;9.90;99.90
38622;DHT22;24380;51.132;5.360;2023-04-25T07:54:54;10.00;99.90
38622;DHT22;24380;51.132;5.360;2023-04-25T07:57:21;10.10;99.90
38622;DHT22;24380;51.132;5.360;2023-04-25T07:59:50;10.10;99.90
38622;DHT22;24380;51.132;5.360;2023-04-25T08:02:18;9.90;99.90
38622;DHT22;24380;51.132;5.360;2023-04-25T08:04:46;9.80;99.90
38622;DHT22;24380;51.132;5.360;2023-04-25T08:07:15;9.80;99.90
38622;DHT22;24380;51.132;5.360;2023-04-25T08:09:43;9.80;99.90
38622;DHT22;24380;51.132;5.360;2023-04-25T08:12:10;9.80;99.90
38622;DHT22;24380;51.132;5.360;2023-04-25T08:14:38;9.90;99.90
38622;DHT22;24380;51.132;5.360;2023-04-25T08:17:06;9.90;99.90
38622;DHT22;24380;51.132;5.360;2023-04-25T08:19:34;10.00;99.90
38622;DHT22;24380;51.132;5.360;2023-04-25T08:22:02;10.10;99.90
38622;DHT22;24380;51.132;5.360;2023-04-25T08:24:29;10.20;99.90
38622;DHT22;24380;51.132;5.360;2023-04-25T08:26:57;9.90;99.90
38622;DHT22;24380;51.132;5.360;2023-04-25T08:29:25;10.10;99.90
38622;DHT22;24380;51.132;5.360;2023-04-25T08:31:52;10.20;99.90
38622;DHT22;24380;51.132;5.360;2023-04-25T08:34:20;10.50;99.90
38622;DHT22;24380;51.132;5.360;2023-04-25T08:36:47;10.90;99.90
38622;DHT22;24380;51.132;5.360;2023-04-25T08:39:15;11.00;99.90
38622;DHT22;24380;51.132;5.360;2023-04-25T08:41:43;10.70;99.90
38622;DHT22;24380;51.132;5.360;2023-04-25T08:44:11;10.70;99.90
38622;DHT22;24380;51.132;5.360;2023-04-25T08:46:39;10.90;99.90
38622;DHT22;24380;51.132;5.360;2023-04-25T08:49:09;11.00;99.90
38622;DHT22;24380;51.132;5.360;2023-04-25T08:51:43;11.00;99.90
38622;DHT22;24380;51.132;5.360;2023-04-25T08:54:10;11.40;99.90
38622;DHT22;24380;51.132;5.360;2023-04-25T08:56:44;11.60;99.90
38622;DHT22;24380;51.132;5.360;2023-04-25T08:59:12;11.50;99.90
38622;DHT22;24380;51.132;5.360;2023-04-25T09:01:40;11.50;99.90
38622;DHT22;24380;51.132;5.360;2023-04-25T09:04:07;11.20;99.90
38622;DHT22;24380;51.132;5.360;2023-04-25T09:06:35;11.50;99.90
38622;DHT22;24380;51.132;5.360;2023-04-25T09:09:05;12.20;99.90
38622;DHT22;24380;51.132;5.360;2023-04-25T09:11:34;13.10;99.90
38622;DHT22;24380;51.132;5.360;2023-04-25T09:14:22;14.10;99.30
38622;DHT22;24380;51.132;5.360;2023-04-25T09:16:59;14.60;96.80
38622;DHT22;24380;51.132;5.360;2023-04-25T09:19:32;15.40;97.80
38622;DHT22;24380;51.132;5.360;2023-04-25T09:22:03;15.50;96.90
38622;DHT22;24380;51.132;5.360;2023-04-25T09:24:37;14.60;97.30
38622;DHT22;24380;51.132;5.360;2023-04-25T09:27:10;14.00;97.50
38622;DHT22;24380;51.132;5.360;2023-04-25T09:29:40;13.40;97.90
38622;DHT22;24380;51.132;5.360;2023-04-25T09:32:22;12.90;99.10
38622;DHT22;24380;51.132;5.360;2023-04-25T09:34:55;12.50;99.70
38622;DHT22;24380;51.132;5.360;2023-04-25T09:37:21;12.30;99.60
38622;DHT22;24380;51.132;5.360;2023-04-25T09:39:54;12.10;99.90
38622;DHT22;24380;51.132;5.360;2023-04-25T09:42:26;11.90;99.60
38622;DHT22;24380;51.132;5.360;2023-04-25T09:44:55;11.80;99.80
38622;DHT22;24380;51.132;5.360;2023-04-25T09:47:24;11.90;99.90
38622;DHT22;24380;51.132;5.360;2023-04-25T09:49:53;11.90;99.90
38622;DHT22;24380;51.132;5.360;2023-04-25T09:52:23;11.70;99.90
38622;DHT22;24380;51.132;5.360;2023-04-25T09:54:51;11.60;99.90
38622;DHT22;24380;51.132;5.360;2023-04-25T09:57:25;11.30;99.90
38622;DHT22;24380;51.132;5.360;2023-04-25T09:59:49;11.00;99.90
38622;DHT22;24380;51.132;5.360;2023-04-25T10:02:19;10.80;99.90
38622;DHT22;24380;51.132;5.360;2023-04-25T10:04:51;10.70;99.90
38622;DHT22;24380;51.132;5.360;2023-04-25T10:07:23;10.50;99.90
38622;DHT22;24380;51.132;5.360;2023-04-25T10:10:04;10.50;99.90
38622;DHT22;24380;51.132;5.360;2023-04-25T10:12:30;10.40;99.90
38622;DHT22;24380;51.132;5.360;2023-04-25T10:14:58;10.30;99.90
38622;DHT22;24380;51.132;5.360;2023-04-25T10:17:27;10.20;99.90
38622;DHT22;24380;51.132;5.360;2023-04-25T10:19:55;10.10;99.90
38622;DHT22;24380;51.132;5.360;2023-04-25T10:22:36;10.10;99.90
38622;DHT22;24380;51.132;5.360;2023-04-25T10:25:00;10.20;99.90
38622;DHT22;24380;51.132;5.360;2023-04-25T10:27:30;10.10;99.90
38622;DHT22;24380;51.132;5.360;2023-04-25T10:30:06;10.10;99.90
38622;DHT22;24380;51.132;5.360;2023-04-25T10:32:36;10.20;99.90
38622;DHT22;24380;51.132;5.360;2023-04-25T10:35:15;10.20;99.90
38622;DHT22;24380;51.132;5.360;2023-04-25T10:40:33;10.40;99.90
38622;DHT22;24380;51.132;5.360;2023-04-25T10:45:53;10.30;99.90
38622;DHT22;24380;51.132;5.360;2023-04-25T10:48:30;10.50;99.90
38622;DHT22;24380;51.132;5.360;2023-04-25T10:51:12;10.70;99.90
38622;DHT22;24380;51.132;5.360;2023-04-25T10:53:40;10.90;99.90
38622;DHT22;24380;51.132;5.360;2023-04-25T10:56:18;10.90;99.90
38622;DHT22;24380;51.132;5.360;2023-04-25T10:58:48;11.00;99.90
38622;DHT22;24380;51.132;5.360;2023-04-25T11:01:21;10.90;99.90
38622;DHT22;24380;51.132;5.360;2023-04-25T11:03:49;10.80;99.90
38622;DHT22;24380;51.132;5.360;2023-04-25T11:07:10;11.00;99.90
38622;DHT22;24380;51.132;5.360;2023-04-25T11:08:53;11.40;99.90
38622;DHT22;24380;51.132;5.360;2023-04-25T11:11:21;11.60;99.90
38622;DHT22;24380;51.132;5.360;2023-04-25T11:13:51;11.80;99.90
38622;DHT22;24380;51.132;5.360;2023-04-25T11:16:19;12.00;99.90
38622;DHT22;24380;51.132;5.360;2023-04-25T11:18:46;12.20;99.90
38622;DHT22;24380;51.132;5.360;2023-04-25T11:21:14;12.20;99.90
38622;DHT22;24380;51.132;5.360;2023-04-25T11:23:46;12.60;99.90
38622;DHT22;24380;51.132;5.360;2023-04-25T11:26:14;12.80;99.90
38622;DHT22;24380;51.132;5.360;2023-04-25T11:28:44;13.20;99.90
38622;DHT22;24380;51.132;5.360;2023-04-25T11:31:13;13.60;99.90
38622;DHT22;24380;51.132;5.360;2023-04-25T11:33:40;14.90;99.90
38622;DHT22;24380;51.132;5.360;2023-04-25T11:36:10;15.10;97.90
38622;DHT22;24380;51.132;5.360;2023-04-25T11:38:37;14.70;97.90
38622;DHT22;24380;51.132;5.360;2023-04-25T11:41:05;14.10;97.80
38622;DHT22;24380;51.132;5.360;2023-04-25T11:43:32;14.00;96.90
38622;DHT22;24380;51.132;5.360;2023-04-25T11:46:00;13.60;98.20
38622;DHT22;24380;51.132;5.360;2023-04-25T11:48:28;13.40;97.50
38622;DHT22;24380;51.132;5.360;2023-04-25T11:51:00;13.00;97.20
38622;DHT22;24380;51.132;5.360;2023-04-25T11:53:27;12.40;97.80
38622;DHT22;24380;51.132;5.360;2023-04-25T11:55:55;12.20;98.80
38622;DHT22;24380;51.132;5.360;2023-04-25T11:58:22;11.80;99.90
38622;DHT22;24380;51.132;5.360;2023-04-25T12:00:50;11.50;99.90
38622;DHT22;24380;51.132;5.360;2023-04-25T12:03:18;11.10;99.90
38622;DHT22;24380;51.132;5.360;2023-04-25T12:05:46;11.10;99.90
38622;DHT22;24380;51.132;5.360;2023-04-25T12:08:15;11.00;99.90
38622;DHT22;24380;51.132;5.360;2023-04-25T12:10:45;10.90;99.90
38622;DHT22;24380;51.132;5.360;2023-04-25T12:13:23;11.00;99.90
38622;DHT22;24380;51.132;5.360;2023-04-25T12:15:53;11.20;99.90
38622;DHT22;24380;51.132;5.360;2023-04-25T12:18:25;11.20;99.90
38622;DHT22;24380;51.132;5.360;2023-04-25T12:20:57;11.50;99.90
38622;DHT22;24380;51.132;5.360;2023-04-25T12:23:26;11.60;99.90
38622;DHT22;24380;51.132;5.360;2023-04-25T12:25:54;11.80;99.90
38622;DHT22;24380;51.132;5.360;2023-04-25T12:28:23;11.90;99.90
38622;DHT22;24380;51.132;5.360;2023-04-25T12:30:53;12.20;99.90
38622;DHT22;24380;51.132;5.360;2023-04-25T12:33:22;12.60;99.90
38622;DHT22;24380;51.132;5.360;2023-04-25T12:35:49;13.00;98.20
38622;DHT22;24380;51.132;5.360;2023-04-25T12:38:28;13.20;98.50
38622;DHT22;24380;51.132;5.360;2023-04-25T12:41:00;13.50;98.30
38622;DHT22;24380;51.132;5.360;2023-04-25T12:43:27;13.80;96.70
38622;DHT22;24380;51.132;5.360;2023-04-25T12:45:56;13.70;96.70
38622;DHT22;24380;51.132;5.360;2023-04-25T12:48:24;13.40;97.20
38622;DHT22;24380;51.132;5.360;2023-04-25T12:50:52;13.40;97.30
38622;DHT22;24380;51.132;5.360;2023-04-25T12:53:20;13.70;97.90
38622;DHT22;24380;51.132;5.360;2023-04-25T12:55:49;13.90;95.90
38622;DHT22;24380;51.132;5.360;2023-04-25T12:58:18;14.00;95.50
38622;DHT22;24380;51.132;5.360;2023-04-25T13:00:46;13.70;95.70
38622;DHT22;24380;51.132;5.360;2023-04-25T13:03:15;14.00;95.30
38622;DHT22;24380;51.132;5.360;2023-04-25T13:05:43;14.10;95.70
38622;DHT22;24380;51.132;5.360;2023-04-25T13:08:10;14.30;95.00
38622;DHT22;24380;51.132;5.360;2023-04-25T13:10:38;13.70;94.60
38622;DHT22;24380;51.132;5.360;2023-04-25T13:13:05;13.70;95.90
38622;DHT22;24380;51.132;5.360;2023-04-25T13:15:33;13.30;95.20
38622;DHT22;24380;51.132;5.360;2023-04-25T13:18:00;13.00;95.70
38622;DHT22;24380;51.132;5.360;2023-04-25T13:20:28;12.90;95.90
38622;DHT22;24380;51.132;5.360;2023-04-25T13:22:55;13.10;96.10
38622;DHT22;24380;51.132;5.360;2023-04-25T13:25:23;12.90;96.70
38622;DHT22;24380;51.132;5.360;2023-04-25T13:27:51;13.00;96.50
38622;DHT22;24380;51.132;5.360;2023-04-25T13:30:18;13.10;96.80
38622;DHT22;24380;51.132;5.360;2023-04-25T13:32:46;13.00;96.60
38622;DHT22;24380;51.132;5.360;2023-04-25T13:35:14;13.00;96.80
38622;DHT22;24380;51.132;5.360;2023-04-25T13:37:41;13.20;96.50
38622;DHT22;24380;51.132;5.360;2023-04-25T13:40:10;13.20;96.40
38622;DHT22;24380;51.132;5.360;2023-04-25T13:42:39;13.10;96.60
38622;DHT22;24380;51.132;5.360;2023-04-25T13:45:07;13.00;97.40
38622;DHT22;24380;51.132;5.360;2023-04-25T13:47:35;13.00;97.80
38622;DHT22;24380;51.132;5.360;2023-04-25T13:50:04;13.10;96.90
38622;DHT22;24380;51.132;5.360;2023-04-25T13:52:35;13.40;97.00
38622;DHT22;24380;51.132;5.360;2023-04-25T13:55:02;13.60;96.40
38622;DHT22;24380;51.132;5.360;2023-04-25T13:57:31;13.70;96.40
38622;DHT22;24380;51.132;5.360;2023-04-25T13:59:59;13.90;96.20
38622;DHT22;24380;51.132;5.360;2023-04-25T14:02:28;13.20;95.70
38622;DHT22;24380;51.132;5.360;2023-04-25T14:04:56;13.30;95.60
38622;DHT22;24380;51.132;5.360;2023-04-25T14:07:24;13.30;95.70
38622;DHT22;24380;51.132;5.360;2023-04-25T14:09:51;13.30;96.30
38622;DHT22;24380;51.132;5.360;2023-04-25T14:12:19;13.00;96.30
38622;DHT22;24380;51.132;5.360;2023-04-25T14:14:46;12.80;97.60
38622;DHT22;24380;51.132;5.360;2023-04-25T14:17:14;12.90;97.00
38622;DHT22;24380;51.132;5.360;2023-04-25T14:19:41;13.00;97.70
38622;DHT22;24380;51.132;5.360;2023-04-25T14:22:11;13.00;96.30
38622;DHT22;24380;51.132;5.360;2023-04-25T14:24:38;12.60;96.00
38622;DHT22;24380;51.132;5.360;2023-04-25T14:27:06;12.40;96.90
38622;DHT22;24380;51.132;5.360;2023-04-25T14:29:33;12.40;97.40
38622;DHT22;24380;51.132;5.360;2023-04-25T14:32:01;12.70;97.50
38622;DHT22;24380;51.132;5.360;2023-04-25T14:34:29;12.50;97.30
38622;DHT22;24380;51.132;5.360;2023-04-25T14:36:56;12.60;97.50
38622;DHT22;24380;51.132;5.360;2023-04-25T14:39:24;12.60;97.20
38622;DHT22;24380;51.132;5.360;2023-04-25T14:41:51;12.70;97.00
38622;DHT22;24380;51.132;5.360;2023-04-25T14:44:19;12.50;97.60
38622;DHT22;24380;51.132;5.360;2023-04-25T14:46:46;12.20;97.80
38622;DHT22;24380;51.132;5.360;2023-04-25T14:49:14;12.20;97.50
38622;DHT22;24380;51.132;5.360;2023-04-25T14:51:41;12.30;97.30
38622;DHT22;24380;51.132;5.360;2023-04-25T14:54:09;12.00;97.20
38622;DHT22;24380;51.132;5.360;2023-04-25T14:56:38;12.00;97.40
38622;DHT22;24380;51.132;5.360;2023-04-25T14:59:06;12.20;98.00
38622;DHT22;24380;51.132;5.360;2023-04-25T15:01:34;12.20;96.60
38622;DHT22;24380;51.132;5.360;2023-04-25T15:04:01;12.30;97.60
38622;DHT22;24380;51.132;5.360;2023-04-25T15:06:29;12.40;97.70
38622;DHT22;24380;51.132;5.360;2023-04-25T15:08:57;12.60;97.00
38622;DHT22;24380;51.132;5.360;2023-04-25T15:11:25;12.60;97.50
38622;DHT22;24380;51.132;5.360;2023-04-25T15:13:52;12.90;96.90
38622;DHT22;24380;51.132;5.360;2023-04-25T15:16:20;12.90;97.10
38622;DHT22;24380;51.132;5.360;2023-04-25T15:18:47;12.90;97.20
38622;DHT22;24380;51.132;5.360;2023-04-25T15:21:15;13.10;96.00
38622;DHT22;24380;51.132;5.360;2023-04-25T15:23:42;12.80;95.60
38622;DHT22;24380;51.132;5.360;2023-04-25T15:26:10;12.80;95.40
38622;DHT22;24380;51.132;5.360;2023-04-25T15:28:37;12.80;95.90
38622;DHT22;24380;51.132;5.360;2023-04-25T15:31:05;12.70;95.10
38622;DHT22;24380;51.132;5.360;2023-04-25T15:33:33;12.50;95.20
38622;DHT22;24380;51.132;5.360;2023-04-25T15:36:00;12.30;95.50
38622;DHT22;24380;51.132;5.360;2023-04-25T15:38:29;12.40;95.80
38622;DHT22;24380;51.132;5.360;2023-04-25T15:40:57;12.60;94.80
38622;DHT22;24380;51.132;5.360;2023-04-25T15:43:24;12.70;95.50
38622;DHT22;24380;51.132;5.360;2023-04-25T15:45:52;12.80;95.60
38622;DHT22;24380;51.132;5.360;2023-04-25T15:48:20;12.80;95.10
38622;DHT22;24380;51.132;5.360;2023-04-25T15:50:47;12.80;94.90
38622;DHT22;24380;51.132;5.360;2023-04-25T15:53:15;12.60;95.60